Greenville, SC (29602)

7:46 AM EDT on April 27, 2017 (GMT -0400)
Camperdown Parking Deck | | Change Station

Elev 919 ft 34.85 °N, 82.40 °W | Updated 11 seconds ago

Mostly Cloudy
Mostly Cloudy
63.0 °F
Feels Like 63.0 °F
N
0.0
Wind Variable Wind from SE
Gusts 5.0 mph

Today
High -- | Low -- °F
--% Chance of Precip.
Yesterday
High -- | Low -- °F
Precip. -- in
Pressure 29.83 in
Visibility 7.0 miles
Clouds Mostly Cloudy 6000 ft
Dew Point 58 °F
Humidity 85%
Rainfall 0.00 in
Snow Depth Not available.
6:43 AM 8:11 PM
New Moon, 1% visible
METAR KGMU 271053Z 20003KT 7SM BKN060 17/14 A2986 RMK AO2 SLP102 T01720144
Pressure 29.83 in
Visibility 7.0 miles
Clouds Mostly Cloudy 6000 ft
Dew Point 58 °F
Humidity 85%
Rainfall 0.00 in
Snow Depth Not available.
6:43 AM 8:11 PM
New Moon, 1% visible
METAR KGMU 271053Z 20003KT 7SM BKN060 17/14 A2986 RMK AO2 SLP102 T01720144

Get Severe Weather Alerts

Thanks for signing up!

Be on the lookout for a verification email in your inbox.

You'll start receiving the daily forecast at 8 AM.

×

10-Day Weather Forecast

Almanac

Astronomy

Apr. 27, 2017 Rise Set
Actual Time
Civil Twilight
Nautical Twilight
Astronomical Twilight
Moon
Length of Visible Light
Length of Day
Tomorrow will be .
, % of the Moon is Illuminated

Today's Extremes

State Highs State Lows

Community

WunderPhotos

WunderBlog® & News

Nearby

Air Quality

  Air Quality AQ Index Pollutant
Not available.

Snow Depth

Station Depth Elevation

Earthquake Activity

City Distance Mag. Time & Date
Minimum magnitude displayed is 2.5.

Coastal Water Temperatures

Place Temperature

Stations

Nearby Weather Stations

Station Location Temp. Windchill Dew Point Humidity Wind Precip. Elev Updated Type
                   

Watches & Warnings

There are currently no watches in effect.